Date,TemperatureHighF,TemperatureAvgF,TemperatureLowF,DewpointHighF,DewpointAvgF,DewpointLowF,HumidityHigh,HumidityAvg,HumidityLow,PressureMaxIn,PressureMinIn,WindSpeedMaxMPH,WindSpeedAvgMPH,GustSpeedMaxMPH,PrecipitationSumIn
2013-1-1,39.7,36.2,27.3,28.5,23.8,12.0,67,60,51,30.02,29.83,8,1,10,0.00
2013-1-2,34.2,28.3,23.9,17.0,14.0,10.1,60,55,49,30.19,29.98,7,0,8,0.00
2013-1-3,34.9,28.6,24.8,18.8,16.2,14.9,72,60,50,30.22,30.07,6,0,7,0.00
2013-1-4,38.5,33.7,27.9,22.7,21.0,18.3,70,59,52,30.10,29.95,10,1,14,0.00
2013-1-5,44.5,35.4,31.6,24.8,21.7,18.2,69,57,47,30.30,30.01,7,1,7,0.00
2013-1-6,47.3,38.5,32.9,33.1,27.5,22.7,98,66,48,30.24,29.95,6,0,6,0.00
2013-1-7,45.9,37.2,30.4,29.2,25.7,22.1,84,64,45,30.45,30.04,5,0,5,0.00
2013-1-8,48.7,37.0,27.7,32.4,27.5,22.5,91,70,50,30.48,30.36,6,0,6,0.00
2013-1-9,47.3,39.7,29.3,38.0,32.3,26.6,90,75,62,30.42,30.14,6,0,7,0.00
2013-1-10,49.1,42.3,37.0,32.8,27.0,24.0,68,55,44,30.63,30.24,6,0,9,0.00
2013-1-11,38.1,38.0,37.8,25.1,24.8,24.3,59,59,58,30.63,30.60,0,0,0,0.00
2013-1-12,46.4,44.8,40.7,46.4,44.0,39.9,100,97,93,30.17,30.08,0,0,4,0.35
2013-1-13,48.6,46.6,45.0,48.6,46.6,45.0,100,100,100,30.16,30.01,3,0,3,0.00
2013-1-14,56.5,49.9,40.3,55.8,44.1,29.6,100,83,51,30.33,29.89,4,0,5,0.04
2013-1-15,40.3,38.0,35.5,38.7,30.6,25.2,98,75,59,30.39,30.23,4,0,7,0.08
2013-1-16,36.0,34.1,32.9,34.1,33.1,29.6,100,96,84,30.24,29.77,5,0,6,0.47
2013-1-17,44.4,39.0,36.0,32.5,25.0,19.5,87,58,44,30.10,29.89,5,0,6,0.08
2013-1-18,36.3,29.7,26.2,23.0,14.1,5.5,62,52,41,30.54,30.01,5,1,10,0.00
2013-1-19,54.5,38.5,26.2,31.6,23.3,11.6,74,54,44,30.45,29.92,11,2,13,0.00
2013-1-20,54.3,41.4,30.0,32.5,25.3,12.2,87,54,35,30.04,29.65,13,2,16,0.00
2013-1-21,32.2,28.7,21.4,17.6,13.4,9.2,64,52,47,30.10,29.80,7,0,8,0.00
2013-1-22,26.8,20.4,13.8,14.0,4.1,-5.9,61,49,36,30.22,29.80,10,1,14,0.00
2013-1-23,21.2,15.2,10.8,2.9,-0.8,-5.4,60,49,42,30.27,30.16,8,1,10,0.00
2013-1-24,25.3,17.0,10.4,5.0,2.3,-2.6,73,53,39,30.45,30.13,8,1,16,0.00
2013-1-25,25.2,17.8,10.1,16.0,5.5,-2.5,85,59,48,30.45,30.07,6,0,9,0.00
2013-1-26,28.6,20.6,12.6,13.0,8.8,6.3,85,61,43,30.42,30.04,6,0,9,0.00
2013-1-27,36.0,27.3,14.3,17.2,12.7,7.2,79,54,38,30.57,30.40,6,0,9,0.00
2013-1-28,35.1,30.7,24.4,35.1,25.8,13.3,100,83,58,30.54,29.98,5,0,5,0.12
2013-1-29,54.5,43.2,33.6,45.0,40.1,32.6,100,90,60,30.16,30.01,4,0,4,0.04
2013-1-30,65.5,47.1,39.9,63.1,46.8,37.9,100,99,72,30.10,29.30,9,0,11,0.08
2013-1-31,61.2,47.8,29.5,61.2,38.3,12.2,100,72,45,29.77,28.97,11,3,17,2.78
2013-2-1,32.9,28.1,23.5,17.3,13.5,9.8,72,54,40,30.24,29.77,6,1,8,0.31
2013-2-2,30.2,24.3,18.5,21.4,11.5,6.6,86,58,45,30.33,30.04,6,1,9,4.94
2013-2-3,33.1,27.1,24.4,22.3,19.3,16.4,90,73,57,30.06,29.77,5,0,5,9.88
2013-2-4,33.3,26.8,22.1,19.2,12.6,9.2,75,55,47,29.98,29.77,10,1,11,7.41
2013-2-5,32.2,29.8,27.5,30.0,24.7,13.8,93,81,57,29.97,29.86,4,0,4,2.47
2013-2-6,38.9,32.8,28.6,30.2,22.8,6.7,98,69,45,30.39,29.89,6,0,8,7.41
2013-2-7,34.0,30.7,22.5,19.2,14.2,7.2,61,50,45,30.57,30.34,4,0,4,7.41
2013-2-8,34.0,32.5,28.2,33.0,28.4,19.2,100,85,61,30.36,29.59,9,1,16,12.35
2013-2-9,34.2,27.9,19.2,28.6,15.0,3.5,95,60,37,30.39,29.71,8,0,8,7.41
2013-2-10,40.1,26.0,13.6,22.7,14.0,6.5,75,61,43,30.54,30.34,6,0,13,4.94
2013-2-11,43.0,35.6,30.0,42.3,33.0,20.9,100,91,66,30.36,29.62,3,0,4,2.47
2013-2-12,45.7,39.7,33.3,39.0,20.3,16.4,98,47,32,29.97,29.68,11,1,15,4.94
2013-2-13,44.7,35.8,27.0,31.1,20.2,14.3,86,55,32,29.96,29.65,4,0,4,2.47
2013-2-14,46.4,36.6,32.2,31.2,24.8,14.6,95,66,29,29.98,29.68,4,0,5,4.94
2013-2-15,56.3,41.4,30.5,34.1,24.6,19.6,94,55,27,30.01,29.89,6,1,9,4.94
2013-2-16,40.6,35.9,30.9,32.4,20.9,5.7,86,57,34,29.95,29.71,6,0,6,2.47
2013-2-17,32.2,27.1,18.0,9.5,4.1,-1.9,47,37,28,30.01,29.62,14,2,14,2.47
2013-2-18,36.0,24.9,16.7,12.2,5.6,-0.4,48,43,35,30.27,30.01,10,2,10,4.94
2013-2-19,47.1,36.6,23.5,43.7,27.8,11.2,100,72,44,30.22,29.65,12,0,12,2.47
2013-2-20,37.0,30.8,25.3,22.2,12.5,7.3,58,46,41,29.98,29.68,10,2,12,7.41
2013-2-21,36.3,29.0,24.4,15.0,10.9,7.3,53,46,41,30.16,29.95,12,2,12,7.41
2013-2-22,38.8,34.5,25.2,31.3,22.8,14.7,79,63,49,30.45,30.27,4,0,4,4.94
2013-2-23,41.7,38.0,35.3,41.7,37.4,31.5,100,98,80,30.30,29.77,4,0,5,0.10
2013-2-24,48.0,39.1,32.9,36.0,25.2,12.9,96,61,34,29.97,29.71,7,1,9,2.47
2013-2-25,44.1,38.1,31.6,25.6,17.6,12.7,77,44,33,30.24,29.95,5,0,7,0.00
2013-2-26,46.4,38.6,32.2,33.2,23.3,19.4,89,55,38,30.30,29.83,8,1,12,2.47
2013-2-27,47.8,42.3,36.1,44.9,36.9,28.8,98,83,52,29.89,29.45,10,2,17,0.00
2013-2-28,48.9,42.8,37.6,34.0,27.4,18.3,77,56,34,29.63,29.51,6,0,6,2.47
2013-3-1,46.2,39.3,35.2,24.8,20.2,16.1,64,47,33,29.74,29.57,6,1,6,0.00
2013-3-2,41.5,35.7,31.3,22.1,16.1,13.7,66,45,34,29.74,29.68,6,1,6,2.47
2013-3-3,39.9,32.9,28.6,15.3,10.6,7.9,51,39,31,29.74,29.62,8,1,8,0.00
2013-3-4,42.3,33.9,27.3,13.5,10.3,6.5,48,37,29,29.89,29.74,7,2,7,0.00
2013-3-5,50.5,39.3,30.9,21.0,15.8,11.8,49,39,28,30.01,29.89,6,1,6,2.47
2013-3-6,43.3,39.9,36.7,31.1,23.5,17.4,71,52,41,29.95,29.83,16,3,16,2.47
2013-3-7,39.7,36.9,34.0,31.7,24.6,17.1,85,62,42,30.10,29.89,6,1,8,7.41
2013-3-8,39.7,35.4,32.2,30.9,27.6,18.5,86,74,47,30.22,30.01,5,0,5,17.29
2013-3-9,55.6,40.6,33.1,20.6,16.0,10.7,53,38,17,30.36,30.19,8,1,8,2.47
2013-3-10,50.9,40.6,32.7,30.8,25.9,15.2,81,57,37,30.42,30.33,5,0,5,0.00
2013-3-11,56.3,46.6,38.7,45.0,36.5,30.4,83,69,41,30.36,30.10,6,0,6,0.00
2013-3-12,58.3,51.4,43.7,57.7,46.4,30.2,98,84,53,30.10,29.62,5,0,13,2.47
2013-3-13,52.2,43.0,36.9,32.1,23.2,15.0,78,48,26,29.86,29.77,9,1,9,2.47
2013-3-14,43.2,35.3,29.5,17.2,6.3,-2.6,44,30,18,29.95,29.83,11,2,11,0.00
2013-3-15,46.4,38.1,29.3,22.4,11.4,1.1,43,33,25,29.98,29.68,9,1,9,0.00
2013-3-16,42.3,36.3,33.3,33.8,22.6,12.1,92,61,33,29.89,29.74,4,0,4,0.00
2013-3-17,38.8,34.1,29.1,31.2,20.2,15.5,87,57,46,30.33,29.89,6,1,6,0.00
2013-3-18,38.1,32.1,27.3,33.4,21.0,10.7,100,66,48,30.45,30.01,8,1,8,0.00
2013-3-19,47.3,38.3,33.4,38.2,34.3,20.1,100,87,51,30.01,29.65,6,1,7,0.00
2013-3-20,46.9,38.3,31.3,25.9,21.2,17.8,59,50,42,29.86,29.74,9,1,9,0.00
2013-3-21,41.9,34.7,30.7,30.5,20.8,14.0,90,58,40,29.80,29.59,5,0,5,0.00
2013-3-22,43.2,33.9,27.0,23.5,18.4,12.8,65,53,45,29.86,29.71,8,1,8,0.00
2013-3-23,48.0,38.9,31.5,27.0,21.8,18.8,63,51,41,29.92,29.80,13,1,13,0.00
2013-3-24,48.6,39.1,31.5,28.0,22.8,18.3,58,52,44,29.95,29.65,8,1,8,0.00
2013-3-25,39.9,38.4,35.8,37.7,30.9,25.0,99,76,56,29.65,29.42,10,1,10,0.00
2013-3-26,53.1,43.0,35.6,33.5,29.6,25.6,88,61,43,29.83,29.54,6,0,6,0.00
2013-3-27,54.7,42.8,34.7,31.5,27.2,22.3,69,55,37,29.98,29.83,8,1,8,0.00
2013-3-28,51.4,43.4,36.3,35.2,29.7,28.0,73,59,45,30.13,29.95,6,1,6,0.00
2013-3-29,55.2,46.2,38.1,33.1,29.7,27.6,67,53,42,30.16,30.07,5,1,6,0.00
2013-3-30,60.6,47.4,37.0,32.6,28.5,23.6,70,50,31,30.19,30.07,8,1,8,0.00
2013-3-31,56.7,46.1,36.0,46.6,35.0,24.0,100,67,44,30.13,29.62,6,1,6,0.00
2013-4-1,62.6,48.7,37.4,46.9,38.2,15.9,100,71,38,29.89,29.59,8,1,9,0.00
2013-4-2,43.3,35.9,30.7,21.4,17.1,13.8,58,46,38,30.10,29.89,10,1,10,0.00
2013-4-3,49.1,37.9,30.9,23.3,16.4,12.3,51,42,35,30.33,30.10,8,1,8,0.00
2013-4-4,57.6,42.6,30.7,34.0,23.5,14.2,59,47,37,30.42,30.07,8,1,8,0.00
2013-4-5,64.0,49.3,40.3,34.4,28.1,20.8,65,45,31,30.07,29.68,7,1,8,0.00
2013-4-6,56.7,43.5,34.5,28.9,22.2,17.1,59,43,32,30.33,29.98,8,1,8,0.00
2013-4-7,66.2,50.1,37.8,44.2,34.4,26.4,72,56,36,30.33,29.98,8,1,8,0.00
2013-4-8,75.2,55.5,47.3,47.6,43.8,41.2,88,67,33,30.07,29.95,4,0,5,0.00
2013-4-9,84.2,66.8,52.0,52.6,47.4,40.7,96,55,28,29.98,29.89,10,1,10,0.00
2013-4-10,77.4,64.4,54.7,58.5,50.3,42.1,100,63,42,29.93,29.80,5,1,8,0.00
2013-4-11,61.9,56.3,48.7,59.7,51.2,40.5,100,84,61,30.04,29.74,7,1,7,0.00
2013-4-12,48.7,43.9,40.2,45.4,41.2,38.2,100,90,70,30.01,29.68,10,2,15,0.26
2013-4-13,59.4,48.9,39.7,42.0,33.2,25.3,93,59,30,29.98,29.71,8,0,8,0.00
2013-4-14,60.1,51.5,44.8,38.3,28.4,21.7,72,43,26,30.24,29.95,8,1,8,0.00
2013-4-15,59.4,50.8,44.1,38.7,26.2,20.2,70,39,29,30.42,30.24,6,1,6,0.00
2013-4-16,67.3,57.9,47.5,50.3,44.0,38.0,75,61,45,30.42,30.13,8,0,8,0.00
2013-4-17,73.9,63.2,54.3,53.0,37.3,24.7,75,43,17,30.33,30.13,8,0,8,0.00
2013-4-18,58.6,53.0,49.5,53.5,40.0,31.2,97,63,37,30.39,30.10,7,0,7,0.00
2013-4-19,77.4,66.6,54.3,62.8,57.3,53.5,100,75,45,30.10,29.59,10,1,10,0.00
2013-4-20,62.6,53.1,46.9,61.7,32.7,20.3,97,50,23,30.33,29.65,8,1,8,0.00
2013-4-21,58.3,45.7,36.5,32.3,24.7,18.2,62,44,31,30.69,30.33,6,1,6,0.00
2013-4-22,54.5,47.3,39.2,35.8,32.4,28.9,72,57,41,30.75,30.54,8,1,8,0.00
2013-4-23,51.8,45.8,40.5,41.3,35.7,29.6,88,68,58,30.54,30.13,5,1,6,0.00
2013-4-24,74.3,55.6,41.5,53.7,44.8,38.1,90,69,42,30.13,29.80,8,1,8,0.00
2013-4-25,66.2,55.5,46.6,54.7,35.6,29.6,84,48,32,30.30,29.83,7,1,7,0.00
2013-4-26,65.7,54.4,47.7,38.6,34.4,30.5,56,47,32,30.45,30.30,5,0,5,0.00
2013-4-27,71.8,58.0,45.5,41.5,35.4,30.4,64,43,31,30.48,30.30,5,0,5,0.00
2013-4-28,70.9,58.2,45.5,45.5,38.7,32.5,73,49,36,30.36,30.22,5,0,5,0.00
2013-4-29,56.7,54.0,52.7,54.9,51.2,37.6,100,91,49,30.27,30.22,4,0,4,0.00
2013-4-30,66.4,55.9,48.9,52.7,44.3,30.7,100,70,34,30.39,30.24,6,0,6,0.00
2013-5-1,66.7,54.4,44.8,47.4,39.1,32.6,84,58,35,30.54,30.36,6,0,6,0.00
2013-5-2,72.9,57.6,45.5,50.4,44.8,42.1,100,66,39,30.54,30.36,4,0,4,0.00
2013-5-3,66.0,56.6,48.7,45.7,41.1,36.4,89,57,41,30.51,30.42,6,1,6,0.00
2013-5-4,68.0,55.2,46.4,47.9,44.2,41.2,97,70,41,30.42,30.27,6,0,6,0.00
2013-5-5,62.2,52.5,43.7,45.7,41.9,38.0,90,69,45,30.33,30.24,5,0,5,0.00
2013-5-6,67.6,55.8,45.0,54.0,48.2,43.8,99,77,57,30.30,30.19,5,0,5,0.00
2013-5-7,73.0,61.6,50.0,60.3,54.5,48.8,100,79,56,30.19,30.10,4,0,4,0.00
2013-5-8,66.6,60.9,55.0,64.9,59.9,54.7,100,97,83,30.10,29.96,4,0,6,0.30
2013-5-9,67.5,58.7,54.0,60.8,56.0,53.0,100,92,63,30.01,29.89,4,0,4,0.23
2013-5-10,77.5,65.9,55.2,61.1,56.8,50.6,100,76,43,30.01,29.89,6,0,6,0.00
2013-5-11,70.5,64.3,60.1,68.0,63.6,56.7,100,98,75,29.89,29.65,5,0,12,0.61
2013-5-12,67.1,60.2,50.7,61.5,44.8,29.6,100,61,34,29.95,29.62,10,1,10,0.00
2013-5-13,55.9,49.8,43.5,35.0,32.4,29.8,69,52,42,30.13,29.95,7,1,7,0.00
2013-5-14,62.6,51.0,41.5,35.7,33.1,30.2,75,52,33,30.16,30.01,6,0,6,0.00
2013-5-15,71.4,56.5,45.7,62.5,46.2,34.0,100,69,56,30.07,29.65,6,0,6,0.00
2013-5-16,80.7,67.0,59.4,62.3,55.6,46.6,100,70,37,29.83,29.68,6,0,9,0.00
2013-5-17,72.7,62.5,55.0,47.1,43.9,40.2,66,51,39,30.22,29.83,5,0,5,0.00
2013-5-18,64.2,58.9,55.0,58.2,51.4,43.8,94,77,56,30.36,30.22,4,0,4,0.00
2013-5-19,58.6,57.6,54.6,58.1,56.9,51.8,100,97,85,30.36,30.22,4,0,4,0.16
2013-5-20,78.6,67.1,58.5,65.3,59.9,56.3,98,80,47,30.22,29.95,6,0,6,0.00
2013-5-21,85.5,73.9,63.9,70.3,66.4,62.1,98,79,57,29.98,29.83,8,1,8,0.00
2013-5-22,79.7,70.1,62.4,71.4,67.9,60.9,100,93,73,29.92,29.80,5,0,5,0.00
2013-5-23,79.2,71.4,67.8,71.5,69.2,64.7,100,93,63,29.89,29.74,10,1,10,0.00
2013-5-24,67.8,57.1,46.9,67.8,56.1,42.1,100,97,76,29.95,29.65,3,0,4,0.00
2013-5-25,56.7,50.6,46.0,47.8,41.8,36.5,100,73,52,30.04,29.89,9,1,9,0.00
2013-5-26,67.8,58.5,47.3,42.5,39.1,36.0,71,50,37,30.24,29.98,8,1,8,0.00
2013-5-27,74.3,60.4,50.2,47.1,40.8,34.7,63,49,36,30.27,30.13,7,0,7,0.00
2013-5-28,65.0,58.6,53.6,59.8,52.3,42.8,100,81,51,30.27,30.13,4,0,4,0.11
2013-5-29,84.4,71.8,59.2,70.1,65.0,59.2,100,81,55,30.16,30.01,6,1,6,0.00
2013-5-30,89.2,77.8,68.7,70.1,66.4,62.2,100,71,43,30.16,30.07,6,0,6,0.00
2013-5-31,90.7,80.4,69.8,72.3,66.5,59.9,98,65,37,30.16,29.98,6,1,6,0.00
2013-6-1,89.6,78.4,68.2,70.6,67.0,62.2,100,70,46,30.04,29.89,7,1,7,0.00
2013-6-2,86.4,78.3,71.6,71.3,68.4,64.0,91,73,49,29.92,29.77,8,1,8,0.00
2013-6-3,77.3,71.0,65.7,72.7,68.9,47.4,100,94,53,29.89,29.79,6,0,6,0.00
2013-6-4,74.7,65.2,57.2,48.8,45.8,42.6,64,50,38,30.13,29.89,8,0,8,0.00
2013-6-5,72.0,62.9,54.1,55.6,45.0,38.7,88,53,40,30.25,30.13,5,0,5,0.00
2013-6-6,70.2,63.0,57.6,63.2,58.1,49.0,100,86,50,30.16,30.01,5,0,5,0.00
2013-6-7,63.7,61.9,59.0,63.7,61.9,58.4,100,100,96,30.01,29.59,4,0,7,0.83
2013-6-8,73.4,65.5,57.6,66.3,62.2,57.6,100,90,67,30.07,29.57,7,0,7,0.00
2013-6-9,79.7,69.9,60.6,65.4,60.0,55.4,100,73,48,30.22,30.07,4,0,5,0.00
2013-6-10,68.9,66.4,64.2,68.4,65.1,61.6,100,96,83,30.19,29.80,4,0,4,0.00
2013-6-11,78.3,71.0,64.2,71.4,66.1,59.9,100,86,64,29.80,29.59,9,1,9,0.00
2013-6-12,75.7,69.2,63.7,64.0,58.0,52.7,88,69,50,29.83,29.68,6,0,6,0.00
2013-6-13,64.9,62.4,57.7,64.9,61.0,57.0,100,96,79,29.83,29.42,5,0,5,0.07
2013-6-14,73.5,60.1,53.9,64.8,56.6,46.8,100,90,55,29.89,29.51,5,0,6,0.06
2013-6-15,79.0,69.8,60.1,60.9,56.6,52.0,99,66,41,30.04,29.89,6,0,6,0.00
2013-6-16,79.0,70.3,61.0,66.8,58.9,51.8,89,68,47,30.01,29.77,8,1,8,0.00
2013-6-17,84.7,72.7,65.3,72.3,66.5,59.8,100,83,48,29.92,29.83,7,0,7,0.00
2013-6-18,81.0,69.9,64.0,72.1,66.4,62.6,100,90,55,29.89,29.80,4,0,4,0.00
2013-6-19,74.5,66.6,59.0,64.0,54.9,47.8,100,69,40,30.19,29.89,5,0,5,0.00
2013-6-20,78.6,68.3,57.2,60.2,55.9,52.1,100,67,43,30.30,30.19,7,0,7,0.00
2013-6-21,80.6,70.5,59.7,58.8,54.7,48.8,84,58,46,30.36,30.27,7,1,7,0.00
2013-6-22,82.6,71.9,60.4,64.5,58.4,51.6,85,63,49,30.30,30.16,6,0,6,0.00
2013-6-23,86.0,75.4,65.8,73.8,67.1,60.2,99,77,52,30.22,30.07,6,1,6,0.00
2013-6-24,89.8,78.6,72.1,73.9,68.7,60.1,100,75,44,30.10,29.95,8,1,8,0.00
2013-6-25,88.5,77.3,68.5,75.1,68.8,64.9,100,77,47,30.01,29.80,8,1,8,0.00
2013-6-26,83.3,76.4,71.1,73.4,67.9,64.2,100,76,54,29.86,29.77,5,0,5,0.00
2013-6-27,84.0,76.8,71.4,73.6,70.9,67.3,100,83,58,29.83,29.51,5,0,5,0.00
2013-6-28,84.0,76.3,71.2,73.7,69.8,64.7,100,82,56,29.54,29.45,7,1,7,0.00
2013-6-29,83.8,77.8,69.8,71.6,66.2,61.2,100,70,49,29.68,29.54,8,1,8,0.00
2013-6-30,82.0,75.5,70.7,77.0,73.3,68.6,100,93,77,29.92,29.68,5,0,5,0.00
2013-7-1,75.7,73.9,72.0,75.8,73.9,72.0,100,100,98,30.07,29.89,9,0,9,0.00
2013-7-2,82.6,75.7,72.7,77.0,73.7,71.1,100,94,70,30.22,30.07,8,1,8,0.00
2013-7-3,82.8,75.0,71.2,78.3,73.3,70.2,100,95,68,30.30,30.22,8,0,8,0.00
2013-7-4,87.6,79.2,73.6,77.5,72.6,67.6,100,82,53,30.30,30.19,10,1,10,0.00
2013-7-5,88.7,80.8,73.0,74.8,71.6,66.3,100,75,51,30.27,30.13,6,1,8,0.00
2013-7-6,90.1,82.2,75.0,76.5,73.2,69.0,100,76,50,30.19,30.04,6,1,6,0.00
2013-7-7,90.9,82.7,75.0,75.9,72.5,65.8,99,73,52,30.10,29.95,8,1,8,0.00
2013-7-8,87.4,78.2,70.3,72.7,68.8,65.0,98,75,50,30.07,29.98,6,1,7,0.00
2013-7-9,86.4,78.4,70.2,71.5,68.8,66.5,98,74,56,30.10,30.01,6,1,6,0.00
2013-7-10,85.8,78.8,73.2,77.1,71.4,65.4,100,80,51,30.04,29.80,8,1,8,0.00
2013-7-11,83.1,78.2,73.6,74.2,67.6,62.2,89,71,50,29.92,29.80,5,0,5,0.00
2013-7-12,78.1,72.6,68.4,72.9,67.2,61.9,100,84,67,30.13,29.92,4,0,4,0.00
2013-7-13,76.8,71.6,67.5,76.5,71.4,67.5,100,99,91,30.33,30.13,4,0,4,0.00
2013-7-14,88.7,79.8,73.4,76.8,71.8,64.8,100,79,48,30.39,30.27,6,0,6,0.00
2013-7-15,91.9,82.7,75.2,74.7,71.7,66.7,95,71,47,30.30,30.16,5,0,5,0.00
2013-7-16,90.7,82.6,75.4,71.9,66.5,60.8,82,60,39,30.24,30.16,5,0,5,0.00
2013-7-17,92.3,83.4,76.5,72.3,68.9,62.8,83,63,39,30.24,30.07,4,0,4,0.00
2013-7-18,94.3,84.1,77.9,75.4,70.8,63.9,83,66,39,30.10,29.98,6,0,6,0.00
2013-7-19,94.1,86.1,78.1,77.4,74.5,69.2,95,70,46,29.98,29.80,7,1,7,0.00
2013-7-20,90.3,82.8,77.2,76.5,70.4,64.4,81,67,47,29.83,29.71,7,1,8,0.00
2013-7-21,85.8,78.2,73.0,74.8,66.0,57.2,100,70,40,29.98,29.83,4,0,4,0.00
2013-7-22,82.0,76.3,73.2,79.0,72.1,64.1,100,87,69,29.95,29.80,3,0,3,0.00
2013-7-23,83.8,77.0,71.8,75.0,71.7,67.0,100,85,59,29.80,29.54,6,1,6,0.00
2013-7-24,78.6,74.3,71.4,69.9,67.3,0.0,91,80,60,29.74,29.59,3,0,3,0.00
2013-8-18,71.8,67.6,64.8,60.8,58.6,46.4,87,73,44,30.30,30.27,0,0,0,0.00
2013-8-19,78.1,68.2,62.2,66.0,62.1,56.5,100,83,49,30.30,30.19,0,0,0,0.00
2013-8-20,102.0,76.4,63.3,70.6,64.1,59.0,100,70,27,30.27,30.19,0,0,0,0.00
2013-8-21,88.7,77.0,66.6,68.8,62.5,56.7,98,66,36,30.33,30.22,0,0,0,0.00
2013-8-22,75.0,72.0,70.0,75.0,70.6,64.7,100,96,75,30.22,30.01,0,0,0,0.00
2013-8-23,82.4,72.2,67.1,72.6,66.1,58.7,100,83,51,30.24,30.01,0,0,0,0.00
2013-8-24,81.5,70.1,61.9,61.2,55.1,47.8,90,61,38,30.54,30.24,0,0,0,0.00
2013-8-25,82.8,70.3,59.2,62.2,57.4,49.7,100,69,37,30.60,30.42,0,0,0,0.00
2013-8-26,83.1,73.1,65.1,71.6,62.5,57.0,98,70,52,30.42,30.07,0,0,0,0.00
2013-8-27,88.2,76.8,69.4,71.6,65.8,58.3,100,73,38,30.07,29.95,0,0,0,0.00
2013-8-28,82.0,74.0,69.4,73.9,69.4,64.8,98,86,59,30.04,29.98,0,0,0,0.00
2013-8-29,79.2,72.2,69.4,72.4,67.5,61.2,98,86,58,30.19,30.01,0,0,0,0.00
2013-8-30,84.2,75.0,69.1,67.6,64.1,58.8,88,71,43,30.19,30.01,0,0,0,0.00
2013-8-31,86.5,77.7,70.7,74.6,69.0,62.8,90,76,46,30.01,29.92,0,0,0,0.00
2013-9-1,85.3,76.6,72.0,75.9,73.8,70.1,100,92,67,30.01,29.92,0,0,0,0.00
2013-9-2,79.4,73.7,71.2,78.1,73.7,69.9,100,100,99,29.95,29.79,0,0,4,0.00
2013-9-3,87.1,73.4,66.9,75.9,69.8,59.3,100,90,55,30.04,29.80,1,0,6,0.00
2013-9-4,84.6,70.7,61.2,65.6,63.4,56.2,100,80,51,30.19,29.98,1,0,9,0.00
2013-9-5,83.5,68.3,60.1,66.9,60.6,46.4,100,79,38,30.33,30.06,1,0,9,0.00
2013-9-6,78.8,62.8,54.0,55.2,50.4,43.0,90,66,42,30.45,30.24,1,0,6,0.00
2013-9-7,79.0,65.4,52.5,61.3,55.8,52.2,100,75,43,30.30,30.07,0,0,0,0.00
2013-9-8,85.3,71.2,63.1,69.9,61.1,47.1,99,73,37,30.24,29.92,1,0,8,0.00
2013-9-9,73.4,64.7,54.5,64.2,55.9,46.0,90,74,60,30.42,30.17,1,0,8,0.00
2013-9-10,88.9,75.7,67.1,72.3,68.6,60.1,100,81,52,30.36,30.14,1,0,9,0.00
2013-9-11,94.5,82.0,71.9,74.5,71.2,67.3,98,72,44,30.30,30.06,2,0,8,0.00
2013-9-12,86.0,77.1,68.9,73.7,69.6,62.7,98,79,54,30.16,29.76,2,0,10,0.00
2013-9-13,81.9,68.9,59.7,68.5,58.7,44.9,98,73,30,30.01,29.73,1,0,7,0.00
2013-9-14,66.0,59.3,53.4,52.5,46.9,39.9,87,65,42,30.30,30.01,0,0,0,0.00
2013-9-15,73.8,60.0,48.2,57.0,51.7,48.2,100,77,45,30.42,30.24,0,0,0,0.00
2013-9-16,71.8,62.8,57.2,63.5,57.0,49.8,100,83,53,30.42,30.22,0,0,0,0.00
2013-9-17,78.3,57.6,48.4,52.0,44.2,39.1,89,62,38,30.66,30.42,0,0,0,0.00
2013-9-18,83.3,59.6,47.5,53.6,48.8,46.4,99,71,36,30.57,30.36,0,0,0,0.00
2013-9-19,86.4,63.0,49.6,57.6,53.6,49.6,100,75,37,30.39,30.24,0,0,0,0.00
2013-9-20,79.5,64.3,54.0,62.5,58.4,54.0,100,84,48,30.27,30.16,0,0,0,0.00
2013-9-21,79.3,66.2,55.2,68.4,61.3,55.2,100,86,52,30.19,29.50,0,0,0,0.37
2013-9-22,68.5,62.9,54.7,66.6,52.4,38.7,96,71,48,29.76,29.50,4,1,4,0.46
2013-9-23,67.1,56.6,48.2,45.7,41.7,38.0,76,58,45,29.91,29.76,6,1,6,0.00
2013-9-24,75.0,57.9,44.2,50.4,44.7,39.7,87,63,42,29.91,29.74,4,0,4,0.00
2013-9-25,74.8,59.5,46.9,52.1,47.1,42.3,87,65,44,29.79,29.74,5,0,5,0.00
2013-9-26,70.5,58.8,53.1,59.8,54.2,49.8,95,85,66,29.94,29.79,6,0,6,0.00
2013-9-27,67.6,60.8,52.5,56.7,53.8,49.8,94,79,61,30.12,29.94,4,0,4,0.00
2013-9-28,76.3,62.7,54.1,55.8,53.0,51.0,93,73,45,30.18,30.06,4,0,6,0.00
2013-9-29,72.7,61.0,52.2,60.5,54.6,50.5,95,81,57,30.09,29.91,4,0,4,0.00
2013-9-30,76.5,60.8,50.0,56.7,52.2,48.6,97,76,45,29.94,29.82,3,0,3,0.00
2013-10-1,79.3,64.8,52.9,60.5,56.2,50.9,94,76,50,29.85,29.76,7,0,7,0.00
2013-10-2,86.0,68.9,55.9,64.0,59.4,54.0,95,74,46,29.88,29.76,8,1,8,0.00
2013-10-3,78.8,68.3,58.5,60.9,58.4,54.5,95,73,45,29.97,29.85,5,0,5,0.00
2013-10-4,85.8,70.7,60.1,67.9,62.6,57.3,93,77,51,29.91,29.82,6,0,6,0.00
2013-10-5,78.1,69.4,66.2,68.3,65.5,64.0,95,88,69,29.94,29.85,5,0,5,0.00
2013-10-6,68.9,67.2,65.7,67.8,66.2,64.0,98,97,91,29.94,29.85,7,1,7,0.00
2013-10-7,78.4,66.7,57.7,73.1,65.3,55.4,98,95,78,29.85,29.59,10,1,10,0.37
2013-10-8,66.4,57.3,49.8,55.4,49.1,45.4,97,76,47,30.15,29.85,4,0,4,0.04
2013-10-9,62.1,55.5,51.4,50.2,46.2,40.1,81,71,64,30.21,30.12,5,0,5,0.00
2013-10-10,61.5,57.2,52.3,56.0,51.9,46.8,92,82,75,30.12,29.91,3,0,4,0.05
2013-10-11,65.7,62.2,57.6,62.2,58.5,54.4,93,88,82,29.94,29.85,4,1,4,0.00
2013-10-12,70.7,64.4,57.9,59.1,49.8,41.4,82,60,43,30.09,29.91,7,1,7,0.00
2013-10-13,76.6,59.6,51.6,73.2,52.2,49.7,93,77,62,30.21,30.09,8,1,8,0.00
2013-10-14,67.8,56.1,47.3,53.2,49.5,46.8,98,80,52,30.21,30.09,6,0,6,0.00
2013-10-15,69.1,57.3,48.9,57.2,49.2,40.3,98,77,44,30.09,29.94,6,1,8,0.00
2013-10-16,68.5,59.8,52.3,59.6,55.5,49.5,95,86,71,29.94,29.76,4,0,4,0.00
2013-10-17,73.4,64.6,61.0,63.8,61.0,59.2,98,89,66,29.76,29.62,4,0,4,0.00
2013-10-18,67.1,59.9,50.0,47.5,43.8,40.1,73,56,45,29.85,29.68,9,1,9,0.00
2013-10-19,69.4,54.0,44.2,54.7,45.5,40.5,94,75,47,29.85,29.62,5,0,5,0.00
2013-10-20,72.9,54.7,45.5,54.2,41.2,33.7,96,64,34,29.91,29.62,6,1,6,0.00
2013-10-21,66.6,52.0,40.5,44.1,38.7,35.6,85,63,38,30.00,29.82,7,0,7,0.00
2013-10-22,64.6,52.4,44.4,51.6,45.1,37.3,95,77,58,29.82,29.62,4,0,6,0.00
2013-10-23,55.2,45.6,41.0,40.5,36.3,33.3,84,71,52,29.68,29.47,3,0,3,0.00
2013-10-24,54.5,45.6,36.5,35.3,31.0,24.6,86,59,39,29.85,29.62,8,1,9,0.00
2013-10-25,55.0,42.8,33.4,34.6,29.4,24.7,79,60,41,30.06,29.85,6,0,6,0.00
2013-10-26,55.4,43.8,32.2,34.0,30.3,27.1,86,61,41,30.06,29.74,10,1,10,0.00
2013-10-27,58.5,48.7,39.0,36.3,31.4,27.4,69,52,39,29.97,29.71,8,0,8,0.00
2013-10-28,61.3,46.7,34.0,37.3,32.1,27.9,82,59,39,30.15,29.97,8,0,8,0.00
2013-10-29,58.3,46.5,39.9,37.1,32.9,29.4,69,59,45,30.24,30.15,4,0,4,0.00
2013-10-30,60.3,49.9,40.1,50.5,42.0,30.9,90,75,65,30.18,30.00,3,0,3,0.00
2013-10-31,64.8,58.2,50.2,62.0,55.8,47.7,97,92,82,30.06,29.65,6,0,6,0.04
2013-11-1,67.5,63.0,55.9,64.7,59.7,54.1,97,89,66,29.65,29.41,12,2,12,0.25
2013-11-2,66.2,56.1,49.8,54.3,48.6,39.7,96,78,51,29.65,29.50,4,0,5,0.25
2013-11-3,53.1,45.5,34.0,42.2,31.5,17.2,80,59,41,30.30,29.65,8,1,8,0.00
2013-11-4,46.0,37.2,30.2,22.5,18.9,14.7,57,48,39,30.47,30.27,6,1,6,0.00
2013-11-5,57.9,45.4,34.7,40.8,33.7,21.2,84,64,52,30.47,30.30,7,1,7,0.00
2013-11-6,65.7,52.4,40.1,52.5,45.1,38.5,96,78,53,30.33,29.91,4,0,6,0.00
2013-11-7,62.1,53.2,38.1,58.9,48.9,31.2,97,86,62,29.91,29.62,7,1,7,0.04
2013-11-8,49.8,42.3,36.3,35.2,28.6,22.7,83,59,44,30.06,29.79,7,1,9,0.00
2013-11-9,52.2,41.5,30.9,31.3,27.6,24.6,80,59,41,30.15,29.82,8,1,8,0.00
2013-11-10,60.1,46.8,35.6,38.2,31.6,26.0,83,57,40,29.91,29.68,15,2,15,0.00
2013-11-11,54.1,47.1,36.1,32.2,27.7,20.9,58,47,41,30.06,29.79,6,2,6,0.00
2013-11-12,50.4,38.0,28.4,32.9,22.0,12.9,73,52,46,30.15,29.79,10,1,10,0.00
2013-11-13,39.6,31.5,25.5,16.7,14.0,12.0,58,48,39,30.24,30.12,8,1,8,0.00
2013-11-14,53.1,37.9,29.7,24.0,17.2,13.8,55,44,27,30.12,30.00,9,2,9,0.00
2013-11-15,56.8,43.2,33.1,33.2,24.0,16.4,56,47,37,30.09,30.00,5,0,5,0.00
2013-11-16,59.2,49.1,41.2,44.7,39.2,25.4,92,70,52,30.18,30.06,6,0,6,0.00
2013-11-17,59.4,54.6,47.1,58.3,52.9,45.2,98,94,91,30.12,29.65,4,0,4,0.00
2013-11-18,63.9,59.0,50.2,62.4,43.5,26.2,98,61,36,29.65,29.47,12,2,12,0.17
2013-11-19,50.2,43.4,35.4,26.5,22.0,17.0,47,42,39,30.18,29.65,10,1,10,0.00
2013-11-20,44.6,36.0,30.0,20.4,16.2,12.4,57,45,31,30.44,30.18,6,0,6,0.00
2013-11-21,51.8,38.8,28.9,40.1,24.3,13.2,74,56,47,30.44,30.24,8,0,8,0.00
2013-11-22,57.2,51.5,47.8,51.4,46.2,40.0,95,82,74,30.24,29.76,8,1,8,0.08
2013-11-23,52.7,41.9,30.2,48.8,25.5,10.9,91,53,41,29.91,29.76,10,2,10,0.00
2013-11-24,30.2,24.7,21.9,12.8,2.3,-99.9,50,39,34,30.24,29.88,7,2,20,0.00
2013-11-25,35.6,27.6,20.8,15.0,8.5,2.5,48,44,42,30.33,30.18,2,0,2,0.00
2013-11-26,46.4,35.6,32.0,43.9,23.9,12.6,98,64,44,30.18,29.59,9,0,9,0.71
2013-11-27,61.0,46.0,33.1,60.4,42.9,21.1,98,89,60,29.65,29.23,13,1,13,2.24
2013-11-28,35.1,31.2,28.2,21.1,15.0,10.9,62,51,42,30.30,29.65,6,1,6,0.00
2013-11-29,38.8,31.9,27.5,21.6,17.4,13.3,64,55,48,30.56,30.30,6,0,6,0.00
2013-11-30,36.3,30.6,23.2,27.3,17.7,9.0,72,59,53,30.56,30.21,8,1,8,0.00
2013-12-1,47.5,39.0,30.2,32.6,28.2,23.4,81,65,54,30.21,29.85,6,0,6,0.00
2013-12-2,48.9,41.8,37.0,33.4,29.7,26.7,72,62,51,29.88,29.74,3,0,3,0.00
2013-12-4,51.4,47.1,38.1,44.9,40.9,35.5,90,79,69,29.97,29.91,3,0,4,0.00
2013-12-5,56.5,51.0,47.3,55.9,49.9,45.1,98,96,89,29.97,29.79,2,0,2,0.00
2013-12-6,60.3,47.8,37.9,59.7,46.8,37.2,98,96,94,30.00,29.74,7,0,7,0.95
2013-12-7,39.4,36.1,30.4,37.2,27.5,15.7,98,73,54,30.36,29.94,6,0,6,0.13
2013-12-8,33.1,29.3,26.8,18.7,15.0,13.1,57,55,53,30.41,30.33,5,0,5,0.00
2013-12-9,36.9,35.6,33.4,36.3,34.9,32.9,98,98,96,29.91,29.82,5,0,5,0.17
2013-12-10,34.3,31.8,24.6,33.7,30.5,20.0,98,95,83,30.00,29.74,4,0,4,0.04
2013-12-11,31.8,26.5,21.9,20.1,16.9,14.3,84,68,54,30.18,30.00,12,1,12,0.00
2013-12-12,27.1,24.1,19.6,14.3,8.7,5.2,61,51,44,30.21,30.00,6,1,6,0.00
2013-12-13,34.2,26.2,18.0,17.0,11.4,4.1,61,53,48,30.18,29.97,11,1,11,0.00
2013-12-14,28.9,25.4,20.7,27.8,18.0,14.1,96,74,59,30.33,29.62,5,1,5,0.00
2013-12-15,37.0,33.2,28.9,33.8,28.7,19.4,98,84,60,29.71,29.38,10,1,10,0.37
2013-12-16,31.1,26.4,20.3,21.6,12.7,6.7,70,56,47,30.06,29.71,10,1,10,0.05
2013-12-17,29.3,25.1,21.4,25.6,18.6,8.9,88,76,58,30.06,29.76,4,0,4,0.05
2013-12-18,36.7,27.6,20.1,24.2,18.7,15.2,82,70,53,30.03,29.76,10,0,10,0.05
2013-12-19,42.4,31.3,22.1,27.9,22.0,15.0,81,69,54,30.03,29.88,6,0,6,0.04
2013-12-20,48.0,39.0,31.1,34.0,30.8,27.0,87,73,56,29.94,29.82,6,0,6,0.20
2013-12-21,58.5,48.0,38.8,52.0,44.7,33.7,98,89,76,29.85,29.76,6,0,6,0.05
2013-12-22,68.0,62.6,51.8,64.1,59.1,51.0,98,89,79,29.82,29.68,11,2,11,0.00
2013-12-23,59.9,54.2,39.9,59.3,52.3,29.1,98,93,66,30.03,29.76,7,0,7,0.62
2013-12-24,39.9,34.5,25.3,29.1,19.9,-11.9,72,55,11,30.21,29.94,10,1,10,0.00
2013-12-25,28.4,24.3,18.3,11.7,7.5,2.8,52,48,46,30.36,30.21,7,1,7,0.00
2013-12-26,35.1,30.1,25.0,24.9,19.0,11.4,69,63,52,30.27,30.00,6,0,6,0.00
2013-12-27,40.3,31.5,25.9,21.8,19.1,16.6,75,60,45,30.21,30.12,9,1,9,0.00
2013-12-28,54.1,38.8,26.2,30.4,24.4,18.3,77,58,39,30.12,29.91,11,1,11,0.00
2013-12-29,41.9,40.3,38.5,41.4,33.3,24.0,98,77,54,29.94,29.29,8,0,8,1.08
2013-12-30,44.1,34.8,22.5,38.7,25.9,7.5,97,72,51,30.03,29.56,9,1,9,0.00
2013-12-31,31.1,25.5,19.8,21.3,11.4,6.4,69,55,50,30.12,29.91,7,1,7,0.00
2014-1-1,33.3,28.1,21.9,17.5,13.4,7.3,60,54,50,30.27,30.06,6,0,6,0.00
2014-1-2,31.8,27.1,15.3,19.4,17.9,10.2,84,69,55,30.06,29.53,8,1,8,0.00